KBKD/BKD METAR and TAF weather

Enter ICAO airport designator
Station Type Date Time Source
KBKD METAR 2018/04/21 20:35 UTC NOAA

KBKD 212035Z AUTO 35019G24KT 5SM HZ SCT100 25/13 A2985 RMK AO2 LTG DSNT NE T02530130


Station Type Date Time Source
KBKD Decoded METAR 2018/04/21 20:35 UTC NOAA

Station name not available
Apr 21, 2018 - 04:35 PM EDT / 2018.04.21 2035 UTC
Wind: from the N (350 degrees) at 22 MPH (19 KT) gusting to 28 MPH (24 KT):0
Visibility: 5 mile(s):0
Sky conditions: partly cloudy
Weather: haze; Lightning observed
Temperature: 77.5 F (25.3 C)
Dew Point: 55.4 F (13.0 C)
Relative Humidity: 46%
Pressure (altimeter): 29.85 in. Hg (1010 hPa)
ob: KBKD 212035Z AUTO 35019G24KT 5SM HZ SCT100 25/13 A2985 RMK AO2 LTG DSNT NE T02530130
cycle: 20

Station Type Date Time Source
KBKD TAF UTC NOAA

Error!


Example: see airport list